createdAt,value
2019-04-27T00:00:46.848Z,0.00
2019-04-27T00:01:48.297Z,0.00
2019-04-27T00:02:44.848Z,0.00
2019-04-27T00:03:44.888Z,0.00
2019-04-27T00:04:48.730Z,0.00
2019-04-27T00:05:45.720Z,0.00
2019-04-27T00:06:46.500Z,0.00
2019-04-27T00:07:44.701Z,0.00
2019-04-27T00:08:44.680Z,0.00
2019-04-27T00:09:50.240Z,0.00
2019-04-27T00:10:45.713Z,0.00
2019-04-27T00:11:45.553Z,0.00
2019-04-27T00:12:45.743Z,0.00
2019-04-27T00:13:44.624Z,0.00
2019-04-27T00:14:48.382Z,0.00
2019-04-27T00:15:45.604Z,0.00
2019-04-27T00:16:50.587Z,0.00
2019-04-27T00:17:49.139Z,0.00
2019-04-27T00:18:45.550Z,0.00
2019-04-27T00:19:44.586Z,0.00
2019-04-27T00:20:44.568Z,0.00
2019-04-27T00:21:44.538Z,0.00
2019-04-27T00:22:44.609Z,0.00
2019-04-27T00:23:44.511Z,0.00
2019-04-27T00:24:44.501Z,0.00
2019-04-27T00:25:44.510Z,0.00
2019-04-27T00:26:45.615Z,0.00
2019-04-27T00:27:44.460Z,0.00
2019-04-27T00:28:44.511Z,0.00
2019-04-27T00:29:44.453Z,0.00
2019-04-27T00:30:44.503Z,0.00
2019-04-27T00:31:44.413Z,0.00
2019-04-27T00:32:44.488Z,0.00
2019-04-27T00:33:44.404Z,0.00
2019-04-27T00:34:44.405Z,0.00
2019-04-27T00:35:44.437Z,0.00
2019-04-27T00:36:44.356Z,0.00
2019-04-27T00:37:44.918Z,0.00
2019-04-27T00:38:44.337Z,0.00
2019-04-27T00:39:44.359Z,0.00
2019-04-27T00:40:45.388Z,0.00
2019-04-27T00:42:14.400Z,0.00
2019-04-27T00:42:44.362Z,0.00
2019-04-27T00:43:44.523Z,0.00
2019-04-27T00:44:44.301Z,0.00
2019-04-27T00:45:44.281Z,0.00
2019-04-27T00:46:44.242Z,0.00
2019-04-27T00:47:54.621Z,0.00
2019-04-27T00:48:45.236Z,0.00
2019-04-27T00:49:44.437Z,0.00
2019-04-27T00:50:44.214Z,0.00
2019-04-27T00:51:44.185Z,0.00
2019-04-27T00:52:44.185Z,0.00
2019-04-27T00:53:44.216Z,0.00
2019-04-27T00:54:44.290Z,0.00
2019-04-27T00:55:44.189Z,0.00
2019-04-27T00:56:44.140Z,0.00
2019-04-27T00:57:44.179Z,0.00
2019-04-27T00:58:45.456Z,0.00
2019-04-27T00:59:44.120Z,0.00
2019-04-27T01:00:44.112Z,0.00
2019-04-27T01:01:44.161Z,0.00
2019-04-27T01:02:44.062Z,0.00
2019-04-27T01:03:44.102Z,0.00
2019-04-27T01:04:44.043Z,0.00
2019-04-27T01:05:44.174Z,0.00
2019-04-27T01:06:44.014Z,0.00
2019-04-27T01:07:44.015Z,0.00
2019-04-27T01:08:44.984Z,0.00
2019-04-27T01:09:44.005Z,0.00
2019-04-27T01:10:43.966Z,0.00
2019-04-27T01:11:44.096Z,0.00
2019-04-27T01:12:43.947Z,0.00
2019-04-27T01:13:43.978Z,0.00
2019-04-27T01:14:45.118Z,0.00
2019-04-27T01:15:44.939Z,0.00
2019-04-27T01:16:43.919Z,0.00
2019-04-27T01:17:43.950Z,0.00
2019-04-27T01:18:43.921Z,0.00
2019-04-27T01:19:43.873Z,0.00
2019-04-27T01:20:43.962Z,0.00
2019-04-27T01:21:43.862Z,0.00
2019-04-27T01:22:44.912Z,0.00
2019-04-27T01:23:43.866Z,0.00
2019-04-27T01:24:43.806Z,0.00
2019-04-27T01:25:43.894Z,0.00
2019-04-27T01:26:43.815Z,0.00
2019-04-27T01:27:43.838Z,0.00
2019-04-27T01:28:43.766Z,0.00
2019-04-27T01:29:43.747Z,0.00
2019-04-27T01:30:43.837Z,0.00
2019-04-27T01:31:43.747Z,0.00
2019-04-27T01:32:43.769Z,0.00
2019-04-27T01:33:43.713Z,0.00
2019-04-27T01:34:43.700Z,0.00
2019-04-27T01:35:43.679Z,0.00
2019-04-27T01:36:43.780Z,0.00
2019-04-27T01:37:43.662Z,0.00
2019-04-27T01:38:43.683Z,0.00
2019-04-27T01:39:43.632Z,0.00
2019-04-27T01:40:44.742Z,0.00
2019-04-27T01:41:43.633Z,0.00
2019-04-27T01:42:43.653Z,0.00
2019-04-27T01:43:43.604Z,0.00
2019-04-27T01:44:43.686Z,0.00
2019-04-27T01:45:43.576Z,0.00
2019-04-27T01:46:43.676Z,0.00
2019-04-27T01:47:43.547Z,0.00
2019-04-27T01:48:43.558Z,0.00
2019-04-27T01:49:43.527Z,0.00
2019-04-27T01:50:43.508Z,0.00
2019-04-27T01:51:43.608Z,0.00
2019-04-27T01:52:43.489Z,0.00
2019-04-27T01:53:43.499Z,0.00
2019-04-27T01:54:43.480Z,0.00
2019-04-27T01:55:44.150Z,0.00
2019-04-27T01:56:43.460Z,0.00
2019-04-27T01:57:43.471Z,0.00
2019-04-27T01:58:43.423Z,0.00
2019-04-27T01:59:44.434Z,0.00
2019-04-27T02:00:43.403Z,0.00
2019-04-27T02:01:43.414Z,0.00
2019-04-27T02:02:43.373Z,0.00
2019-04-27T02:03:43.487Z,0.00
2019-04-27T02:04:43.367Z,0.00
2019-04-27T02:05:43.425Z,0.00
2019-04-27T02:06:44.445Z,0.00
2019-04-27T02:07:43.316Z,0.00
2019-04-27T02:08:44.348Z,0.00
2019-04-27T02:09:43.312Z,0.00
2019-04-27T02:10:43.359Z,0.00
2019-04-27T02:11:43.288Z,0.00
2019-04-27T02:12:44.021Z,0.00
2019-04-27T02:13:43.250Z,0.00
2019-04-27T02:14:43.330Z,0.00
2019-04-27T02:15:43.241Z,0.00
2019-04-27T02:16:43.321Z,0.00
2019-04-27T02:17:43.213Z,0.00
2019-04-27T02:18:43.302Z,0.00
2019-04-27T02:19:43.193Z,0.00
2019-04-27T02:20:45.284Z,0.00
2019-04-27T02:21:43.166Z,0.00
2019-04-27T02:22:43.175Z,0.00
2019-04-27T02:23:43.157Z,0.00
2019-04-27T02:24:43.218Z,0.00
2019-04-27T02:25:43.116Z,0.00
2019-04-27T02:26:44.167Z,0.00
2019-04-27T02:27:43.132Z,0.00
2019-04-27T02:28:43.101Z,0.00
2019-04-27T02:29:43.150Z,0.00
2019-04-27T02:30:43.060Z,0.00
2019-04-27T02:31:43.093Z,0.00
2019-04-27T02:32:43.060Z,0.00
2019-04-27T02:33:43.054Z,0.00
2019-04-27T02:34:44.122Z,0.00
2019-04-27T02:35:43.023Z,0.00
2019-04-27T02:36:43.028Z,0.00
2019-04-27T02:37:43.010Z,0.00
2019-04-27T02:38:42.982Z,0.00
2019-04-27T02:39:42.983Z,0.00
2019-04-27T02:40:44.023Z,0.00
2019-04-27T02:41:42.955Z,0.00
2019-04-27T02:42:42.985Z,0.00
2019-04-27T02:43:42.925Z,0.00
2019-04-27T02:44:42.916Z,0.00
2019-04-27T02:45:42.960Z,0.00
2019-04-27T02:46:42.903Z,0.00
2019-04-27T02:47:43.959Z,0.00
2019-04-27T02:48:56.018Z,0.00
2019-04-27T02:49:43.857Z,0.00
2019-04-27T02:50:42.890Z,0.00
2019-04-27T02:51:43.141Z,0.00
2019-04-27T02:52:42.867Z,0.00
2019-04-27T02:53:42.810Z,0.00
2019-04-27T02:54:44.910Z,0.00
2019-04-27T02:55:42.795Z,0.00
2019-04-27T02:56:42.791Z,0.00
2019-04-27T02:57:42.782Z,0.00
2019-04-27T02:58:42.839Z,0.00
2019-04-27T02:59:42.742Z,0.00
2019-04-27T03:00:42.735Z,0.00
2019-04-27T03:01:46.400Z,0.00
2019-04-27T03:02:42.750Z,0.00
2019-04-27T03:03:42.765Z,0.00
2019-04-27T03:04:42.693Z,0.00
2019-04-27T03:05:42.686Z,0.00
2019-04-27T03:06:42.666Z,0.00
2019-04-27T03:07:42.972Z,0.00
2019-04-27T03:08:42.923Z,0.00
2019-04-27T03:09:42.678Z,0.00
2019-04-27T03:10:42.630Z,0.00
2019-04-27T03:11:42.611Z,0.00
2019-04-27T03:12:42.691Z,0.00
2019-04-27T03:13:42.610Z,0.00
2019-04-27T03:14:42.630Z,0.00
2019-04-27T03:15:42.563Z,0.00
2019-04-27T03:16:42.552Z,0.00
2019-04-27T03:17:42.631Z,0.00
2019-04-27T03:18:42.543Z,0.00
2019-04-27T03:19:42.564Z,0.00
2019-04-27T03:20:42.520Z,0.00
2019-04-27T03:21:42.503Z,0.00
2019-04-27T03:22:42.483Z,0.00
2019-04-27T03:23:43.494Z,0.00
2019-04-27T03:24:42.465Z,0.00
2019-04-27T03:25:42.474Z,0.00
2019-04-27T03:26:42.435Z,0.00
2019-04-27T03:27:42.427Z,0.00
2019-04-27T03:28:45.608Z,4.00
2019-04-27T03:29:42.410Z,4.00
2019-04-27T03:30:43.489Z,4.00
2019-04-27T03:31:47.117Z,8.00
2019-04-27T03:32:43.628Z,8.00
2019-04-27T03:33:43.260Z,4.00
2019-04-27T03:34:42.389Z,12.00
2019-04-27T03:35:44.112Z,12.00
2019-04-27T03:36:42.331Z,16.00
2019-04-27T03:37:43.122Z,20.00
2019-04-27T03:38:42.323Z,20.00
2019-04-27T03:39:43.352Z,20.00
2019-04-27T03:40:42.301Z,28.00
2019-04-27T03:41:42.362Z,28.00
2019-04-27T03:42:42.263Z,36.00
2019-04-27T03:43:42.265Z,40.00
2019-04-27T03:44:42.244Z,52.00
2019-04-27T03:45:42.345Z,52.00
2019-04-27T03:46:42.215Z,60.00
2019-04-27T03:47:50.474Z,68.00
2019-04-27T03:48:42.253Z,76.00
2019-04-27T03:49:43.226Z,88.00
2019-04-27T03:50:42.955Z,96.00
2019-04-27T03:51:42.248Z,104.00
2019-04-27T03:52:42.163Z,120.00
2019-04-27T03:53:42.180Z,128.00
2019-04-27T03:54:42.138Z,140.00
2019-04-27T03:55:42.888Z,156.00
2019-04-27T03:56:42.099Z,172.00
2019-04-27T03:57:42.151Z,196.00
2019-04-27T03:58:42.084Z,220.00
2019-04-27T03:59:42.102Z,244.00
2019-04-27T04:00:42.152Z,268.00
2019-04-27T04:01:42.061Z,288.00
2019-04-27T04:02:42.096Z,312.00
2019-04-27T04:03:42.033Z,336.00
2019-04-27T04:04:43.095Z,360.00
2019-04-27T04:05:42.015Z,380.00
2019-04-27T04:06:42.077Z,396.00
2019-04-27T04:07:41.990Z,416.00
2019-04-27T04:08:41.996Z,448.00
2019-04-27T04:09:41.981Z,480.00
2019-04-27T04:10:41.993Z,508.00
2019-04-27T04:11:42.007Z,540.00
2019-04-27T04:12:41.929Z,572.00
2019-04-27T04:13:41.944Z,652.00
2019-04-27T04:14:42.894Z,768.00
2019-04-27T04:15:41.910Z,864.00
2019-04-27T04:16:41.879Z,884.00
2019-04-27T04:17:41.924Z,888.00
2019-04-27T04:18:41.872Z,920.00
2019-04-27T04:19:54.317Z,896.00
2019-04-27T04:20:42.843Z,880.00
2019-04-27T04:21:41.894Z,888.00
2019-04-27T04:22:41.826Z,944.00
2019-04-27T04:23:41.822Z,992.00
2019-04-27T04:24:41.814Z,988.00
2019-04-27T04:25:41.869Z,1004.00
2019-04-27T04:26:41.784Z,1024.00
2019-04-27T04:27:42.863Z,1080.00
2019-04-27T04:28:41.761Z,1176.00
2019-04-27T04:29:41.800Z,1300.00
2019-04-27T04:30:41.737Z,1424.00
2019-04-27T04:31:41.717Z,1552.00
2019-04-27T04:32:41.728Z,1700.00
2019-04-27T04:33:41.821Z,1840.00
2019-04-27T04:34:41.711Z,1960.00
2019-04-27T04:35:41.748Z,2100.00
2019-04-27T04:36:42.591Z,2240.00
2019-04-27T04:37:41.661Z,2356.00
2019-04-27T04:38:41.761Z,2452.00
2019-04-27T04:39:41.651Z,2548.00
2019-04-27T04:40:41.712Z,2636.00
2019-04-27T04:41:43.625Z,2728.00
2019-04-27T04:42:41.591Z,2828.00
2019-04-27T04:43:41.583Z,2840.00
2019-04-27T04:44:41.703Z,2924.00
2019-04-27T04:45:41.573Z,3100.00
2019-04-27T04:46:41.625Z,3168.00
2019-04-27T04:47:41.563Z,3260.00
2019-04-27T04:48:41.634Z,3356.00
2019-04-27T04:49:41.547Z,3480.00
2019-04-27T04:50:41.565Z,3604.00
2019-04-27T04:51:41.497Z,3728.00
2019-04-27T04:52:42.613Z,3808.00
2019-04-27T04:53:41.488Z,3832.00
2019-04-27T04:54:49.696Z,3844.00
2019-04-27T04:55:41.453Z,3860.00
2019-04-27T04:56:41.479Z,3896.00
2019-04-27T04:57:41.441Z,3932.00
2019-04-27T04:58:41.675Z,4000.00
2019-04-27T04:59:43.721Z,4084.00
2019-04-27T05:00:42.481Z,4172.00
2019-04-27T05:01:41.391Z,4296.00
2019-04-27T05:02:41.483Z,4440.00
2019-04-27T05:03:41.372Z,4620.00
2019-04-27T05:04:41.472Z,4836.00
2019-04-27T05:05:41.477Z,5056.00
2019-04-27T05:06:41.353Z,5184.00
2019-04-27T05:07:41.314Z,5176.00
2019-04-27T05:08:41.394Z,5088.00
2019-04-27T05:09:41.487Z,4980.00
2019-04-27T05:10:41.335Z,4936.00
2019-04-27T05:11:41.286Z,4848.00
2019-04-27T05:12:41.376Z,4796.00
2019-04-27T05:13:41.247Z,4988.00
2019-04-27T05:14:41.237Z,5356.00
2019-04-27T05:15:41.258Z,5784.00
2019-04-27T05:16:41.249Z,6064.00
2019-04-27T05:17:41.214Z,6120.00
2019-04-27T05:18:41.279Z,6048.00
2019-04-27T05:19:41.192Z,5904.00
2019-04-27T05:20:41.270Z,5888.00
2019-04-27T05:21:41.160Z,6016.00
2019-04-27T05:22:41.254Z,6260.00
2019-04-27T05:23:41.142Z,6568.00
2019-04-27T05:24:42.212Z,6884.00
2019-04-27T05:25:41.133Z,7284.00
2019-04-27T05:26:41.123Z,7584.00
2019-04-27T05:27:41.103Z,7696.00
2019-04-27T05:28:42.195Z,7876.00
2019-04-27T05:29:41.065Z,8228.00
2019-04-27T05:30:41.074Z,8680.00
2019-04-27T05:31:41.057Z,9188.00
2019-04-27T05:32:41.127Z,9524.00
2019-04-27T05:33:41.026Z,9668.00
2019-04-27T05:34:41.067Z,9528.00
2019-04-27T05:35:41.233Z,9320.00
2019-04-27T05:36:48.328Z,8928.00
2019-04-27T05:37:44.350Z,8504.00
2019-04-27T05:38:46.050Z,8280.00
2019-04-27T05:39:41.970Z,8400.00
2019-04-27T05:40:41.019Z,8772.00
2019-04-27T05:41:41.673Z,9236.00
2019-04-27T05:42:41.021Z,9684.00
2019-04-27T05:43:40.921Z,10104.00
2019-04-27T05:44:45.741Z,10256.00
2019-04-27T05:45:41.903Z,10168.00
2019-04-27T05:46:40.893Z,9644.00
2019-04-27T05:47:43.271Z,8896.00
2019-04-27T05:48:41.963Z,8012.00
2019-04-27T05:49:44.279Z,7328.00
2019-04-27T05:50:45.683Z,6948.00
2019-04-27T05:51:42.096Z,6956.00
2019-04-27T05:52:40.946Z,6904.00
2019-04-27T05:53:40.865Z,6976.00
2019-04-27T05:54:40.797Z,7220.00
2019-04-27T05:55:40.847Z,7376.00
2019-04-27T05:56:40.767Z,7704.00
2019-04-27T05:57:40.769Z,8148.00
2019-04-27T05:58:40.809Z,8788.00
2019-04-27T05:59:40.729Z,9588.00
2019-04-27T06:00:40.780Z,10048.00
2019-04-27T06:01:40.721Z,10428.00
2019-04-27T06:02:40.710Z,10764.00
2019-04-27T06:03:40.691Z,11060.00
2019-04-27T06:04:41.376Z,10928.00
2019-04-27T06:05:40.671Z,10408.00
2019-04-27T06:06:40.703Z,9952.00
2019-04-27T06:07:40.644Z,9560.00
2019-04-27T06:08:40.633Z,9136.00
2019-04-27T06:09:40.653Z,8492.00
2019-04-27T06:10:40.624Z,8080.00
2019-04-27T06:11:40.635Z,8088.00
2019-04-27T06:12:40.585Z,8536.00
2019-04-27T06:13:40.591Z,7700.00
2019-04-27T06:14:40.577Z,8048.00
2019-04-27T06:15:40.667Z,8708.00
2019-04-27T06:16:40.557Z,8520.00
2019-04-27T06:17:40.608Z,9344.00
2019-04-27T06:18:40.517Z,12632.00
2019-04-27T06:19:43.865Z,19552.00
2019-04-27T06:20:51.103Z,35904.00
2019-04-27T06:21:41.510Z,41696.00
2019-04-27T06:22:40.540Z,40416.00
2019-04-27T06:23:40.461Z,40608.00
2019-04-27T06:24:40.461Z,39808.00
2019-04-27T06:25:40.552Z,31104.00
2019-04-27T06:26:40.452Z,29056.00
2019-04-27T06:27:40.483Z,37152.00
2019-04-27T06:28:40.426Z,23680.00
2019-04-27T06:29:40.890Z,38528.00
2019-04-27T06:30:40.484Z,44000.00
2019-04-27T06:31:40.394Z,42208.00
2019-04-27T06:32:40.428Z,46528.00
2019-04-27T06:33:40.369Z,22464.00
2019-04-27T06:34:40.346Z,41952.00
2019-04-27T06:35:40.347Z,49120.00
2019-04-27T06:36:41.367Z,48928.00
2019-04-27T06:37:40.331Z,49344.00
2019-04-27T06:38:40.329Z,49792.00
2019-04-27T06:39:40.292Z,53344.00
2019-04-27T06:40:40.290Z,55616.00
2019-04-27T06:41:40.339Z,56160.00
2019-04-27T06:42:40.270Z,54048.00
2019-04-27T06:43:40.711Z,48416.00
2019-04-27T06:44:40.242Z,41504.00
2019-04-27T06:45:40.224Z,41472.00
2019-04-27T06:46:40.564Z,39552.00
2019-04-27T06:47:41.451Z,43520.00
2019-04-27T06:48:40.204Z,50944.00
2019-04-27T06:49:40.284Z,50016.00
2019-04-27T06:50:40.154Z,44768.00
2019-04-27T06:51:40.256Z,45632.00
2019-04-27T06:52:40.166Z,45472.00
2019-04-27T06:53:40.156Z,42912.00
2019-04-27T06:54:40.137Z,38560.00
2019-04-27T06:55:40.199Z,36576.00
2019-04-27T06:56:40.097Z,38496.00
2019-04-27T06:57:41.233Z,36064.00
2019-04-27T06:58:40.817Z,36672.00
2019-04-27T06:59:40.170Z,36416.00
2019-04-27T07:00:40.060Z,37632.00
2019-04-27T07:01:40.041Z,36224.00
2019-04-27T07:02:41.142Z,34368.00
2019-04-27T07:03:40.024Z,35712.00
2019-04-27T07:04:40.103Z,36320.00
2019-04-27T07:05:40.003Z,39264.00
2019-04-27T07:06:52.785Z,35616.00
2019-04-27T07:07:41.013Z,36768.00
2019-04-27T07:08:40.227Z,35232.00
2019-04-27T07:09:39.964Z,35392.00
2019-04-27T07:10:41.044Z,33824.00
2019-04-27T07:11:39.941Z,34016.00
2019-04-27T07:12:41.112Z,34656.00
2019-04-27T07:13:39.918Z,34400.00
2019-04-27T07:14:51.800Z,39072.00
2019-04-27T07:15:40.889Z,38016.00
2019-04-27T07:16:39.932Z,37600.00
2019-04-27T07:17:39.950Z,35584.00
2019-04-27T07:18:39.850Z,36448.00
2019-04-27T07:19:39.931Z,38048.00
2019-04-27T07:20:39.831Z,37632.00
2019-04-27T07:21:40.202Z,40256.00
2019-04-27T07:22:39.833Z,41920.00
2019-04-27T07:23:39.904Z,46432.00
2019-04-27T07:24:40.632Z,50560.00
2019-04-27T07:25:40.864Z,53472.00
2019-04-27T07:26:39.755Z,44768.00
2019-04-27T07:27:39.775Z,42816.00
2019-04-27T07:28:41.005Z,40640.00
2019-04-27T07:29:44.666Z,41280.00
2019-04-27T07:30:40.708Z,44800.00
2019-04-27T07:31:40.266Z,43168.00
2019-04-27T07:32:39.702Z,40576.00
2019-04-27T07:33:39.698Z,38784.00
2019-04-27T07:34:39.669Z,38816.00
2019-04-27T07:35:40.749Z,39360.00
2019-04-27T07:36:39.650Z,39296.00
2019-04-27T07:37:40.681Z,38144.00
2019-04-27T07:38:39.642Z,37056.00
2019-04-27T07:39:39.695Z,37312.00
2019-04-27T07:40:41.812Z,37312.00
2019-04-27T07:41:39.627Z,37632.00
2019-04-27T07:42:41.393Z,37504.00
2019-04-27T07:43:39.762Z,36544.00
2019-04-27T07:44:39.569Z,36608.00
2019-04-27T07:45:40.625Z,37248.00
2019-04-27T07:46:39.548Z,37536.00
2019-04-27T07:47:39.540Z,38688.00
2019-04-27T07:48:39.630Z,39136.00
2019-04-27T07:49:39.501Z,42528.00
2019-04-27T07:50:39.479Z,43840.00
2019-04-27T07:51:39.521Z,54144.00
2019-04-27T07:52:40.533Z,50112.00
2019-04-27T07:53:41.550Z,59840.00
2019-04-27T07:54:40.973Z,51584.00
2019-04-27T07:55:39.569Z,56736.00
2019-04-27T07:56:39.451Z,65024.00
2019-04-27T07:57:39.989Z,65504.00
2019-04-27T07:58:39.675Z,57568.00
2019-04-27T07:59:41.929Z,79712.00
2019-04-27T08:00:39.579Z,85088.00
2019-04-27T08:01:41.446Z,75456.00
2019-04-27T08:02:39.357Z,64480.00
2019-04-27T08:03:40.395Z,71136.00
2019-04-27T08:04:40.066Z,66048.00
2019-04-27T08:05:39.307Z,72448.00
2019-04-27T08:06:39.319Z,61600.00
2019-04-27T08:07:39.407Z,67488.00
2019-04-27T08:08:39.705Z,59072.00
2019-04-27T08:09:39.824Z,63584.00
2019-04-27T08:10:39.303Z,80576.00
2019-04-27T08:11:39.438Z,59232.00
2019-04-27T08:12:39.235Z,58720.00
2019-04-27T08:13:39.473Z,74848.00
2019-04-27T08:14:39.222Z,96448.00
2019-04-27T08:15:39.675Z,96800.00
2019-04-27T08:16:39.214Z,39776.00
2019-04-27T08:17:42.396Z,67968.00
2019-04-27T08:18:41.211Z,29184.00
2019-04-27T08:19:39.565Z,68032.00
2019-04-27T08:20:39.214Z,54592.00
2019-04-27T08:21:44.592Z,89152.00
2019-04-27T08:22:40.149Z,98016.00
2019-04-27T08:23:39.481Z,100192.00
2019-04-27T08:24:39.692Z,85216.00
2019-04-27T08:25:39.349Z,44992.00
2019-04-27T08:26:39.527Z,102816.00
2019-04-27T08:27:39.435Z,76352.00
2019-04-27T08:28:39.062Z,53824.00
2019-04-27T08:29:39.399Z,34464.00
2019-04-27T08:30:39.438Z,72928.00
2019-04-27T08:31:39.055Z,37984.00
2019-04-27T08:32:41.322Z,42400.00
2019-04-27T08:33:38.998Z,73920.00
2019-04-27T08:34:39.742Z,33312.00
2019-04-27T08:35:40.667Z,29632.00
2019-04-27T08:36:39.085Z,30304.00
2019-04-27T08:37:38.946Z,36128.00
2019-04-27T08:38:39.052Z,43904.00
2019-04-27T08:39:39.664Z,29568.00
2019-04-27T08:40:39.428Z,25408.00
2019-04-27T08:41:39.942Z,22976.00
2019-04-27T08:42:39.237Z,22208.00
2019-04-27T08:43:39.160Z,23296.00
2019-04-27T08:44:39.752Z,25536.00
2019-04-27T08:45:39.309Z,28448.00
2019-04-27T08:46:38.971Z,28800.00
2019-04-27T08:47:39.403Z,26272.00
2019-04-27T08:48:39.455Z,24640.00
2019-04-27T08:49:39.435Z,24800.00
2019-04-27T08:50:41.863Z,23296.00
2019-04-27T08:51:39.236Z,22784.00
2019-04-27T08:52:41.857Z,21760.00
2019-04-27T08:53:39.804Z,20320.00
2019-04-27T08:54:39.382Z,19040.00
2019-04-27T08:55:39.466Z,18272.00
2019-04-27T08:56:39.610Z,18240.00
2019-04-27T08:57:38.955Z,19264.00
2019-04-27T08:58:38.790Z,21216.00
2019-04-27T08:59:39.261Z,23584.00
2019-04-27T09:00:39.147Z,26880.00
2019-04-27T09:01:39.752Z,26240.00
2019-04-27T09:02:44.591Z,28288.00
2019-04-27T09:03:39.641Z,30656.00
2019-04-27T09:04:39.493Z,36160.00
2019-04-27T09:05:39.060Z,48064.00
2019-04-27T09:06:39.911Z,46464.00
2019-04-27T09:07:39.803Z,47104.00
2019-04-27T09:08:40.961Z,43808.00
2019-04-27T09:09:39.665Z,46208.00
2019-04-27T09:10:38.836Z,29856.00
2019-04-27T09:11:39.218Z,46496.00
2019-04-27T09:12:41.559Z,50848.00
2019-04-27T09:13:39.365Z,50464.00
2019-04-27T09:14:40.797Z,39904.00
2019-04-27T09:15:39.159Z,48544.00
2019-04-27T09:16:38.994Z,56320.00
2019-04-27T09:17:39.724Z,71104.00
2019-04-27T09:18:38.975Z,40320.00
2019-04-27T09:19:39.335Z,42144.00
2019-04-27T09:20:39.101Z,40576.00
2019-04-27T09:21:39.548Z,32800.00
2019-04-27T09:22:39.174Z,58240.00
2019-04-27T09:23:38.948Z,59712.00
2019-04-27T09:24:39.641Z,53664.00
2019-04-27T09:25:39.741Z,57248.00
2019-04-27T09:26:39.415Z,39808.00
2019-04-27T09:27:39.045Z,46912.00
2019-04-27T09:28:38.886Z,24992.00
2019-04-27T09:29:39.514Z,50016.00
2019-04-27T09:30:39.292Z,35072.00
2019-04-27T09:31:39.508Z,55136.00
2019-04-27T09:32:40.718Z,25184.00
2019-04-27T09:33:38.319Z,19488.00
2019-04-27T09:34:38.341Z,51328.00
2019-04-27T09:35:38.320Z,69088.00
2019-04-27T09:36:39.392Z,30528.00
2019-04-27T09:37:38.273Z,24064.00
2019-04-27T09:38:39.332Z,26976.00
2019-04-27T09:39:38.270Z,117088.00
2019-04-27T09:40:38.283Z,77408.00
2019-04-27T09:41:38.225Z,31776.00
2019-04-27T09:42:38.445Z,24736.00
2019-04-27T09:43:38.225Z,108704.00
2019-04-27T09:44:38.216Z,93920.00
2019-04-27T09:45:38.186Z,106784.00
2019-04-27T09:46:38.306Z,101792.00
2019-04-27T09:47:39.043Z,17792.00
2019-04-27T09:48:38.148Z,100768.00
2019-04-27T09:49:38.553Z,101696.00
2019-04-27T09:50:38.139Z,65440.00
2019-04-27T09:51:38.241Z,104448.00
2019-04-27T09:52:38.100Z,93376.00
2019-04-27T09:53:38.101Z,44768.00
2019-04-27T09:54:39.136Z,11916.00
2019-04-27T09:55:38.072Z,10348.00
2019-04-27T09:56:38.182Z,9424.00
2019-04-27T09:57:38.052Z,8556.00
2019-04-27T09:58:38.053Z,8456.00
2019-04-27T09:59:39.684Z,8632.00
2019-04-27T10:00:39.037Z,8428.00
2019-04-27T10:01:38.026Z,9044.00
2019-04-27T10:02:38.047Z,7960.00
2019-04-27T10:03:37.979Z,10160.00
2019-04-27T10:04:37.977Z,8692.00
2019-04-27T10:05:38.060Z,9388.00
2019-04-27T10:06:37.970Z,10132.00
2019-04-27T10:07:39.012Z,9880.00
2019-04-27T10:08:37.930Z,12164.00
2019-04-27T10:09:37.910Z,10812.00
2019-04-27T10:10:37.991Z,10408.00
2019-04-27T10:11:37.912Z,10292.00
2019-04-27T10:12:38.952Z,10276.00
2019-04-27T10:13:37.863Z,11580.00
2019-04-27T10:14:37.854Z,10796.00
2019-04-27T10:15:37.864Z,10888.00
2019-04-27T10:16:43.075Z,11500.00
2019-04-27T10:17:37.825Z,15008.00
2019-04-27T10:18:37.839Z,12040.00
2019-04-27T10:19:37.910Z,11064.00
2019-04-27T10:20:40.606Z,11480.00
2019-04-27T10:21:37.888Z,11324.00
2019-04-27T10:22:41.218Z,12324.00
2019-04-27T10:23:38.809Z,14080.00
2019-04-27T10:24:37.741Z,13344.00
2019-04-27T10:25:37.730Z,15352.00
2019-04-27T10:26:37.751Z,13612.00
2019-04-27T10:27:37.761Z,14232.00
2019-04-27T10:28:37.702Z,16036.00
2019-04-27T10:29:38.716Z,17120.00
2019-04-27T10:30:37.684Z,16176.00
2019-04-27T10:31:37.774Z,14372.00
2019-04-27T10:32:37.674Z,15568.00
2019-04-27T10:33:37.765Z,15684.00
2019-04-27T10:34:37.637Z,16184.00
2019-04-27T10:35:37.696Z,15032.00
2019-04-27T10:36:37.631Z,15872.00
2019-04-27T10:37:37.637Z,13056.00
2019-04-27T10:38:37.614Z,11928.00
2019-04-27T10:39:37.669Z,13064.00
2019-04-27T10:40:37.569Z,13840.00
2019-04-27T10:41:37.585Z,14220.00
2019-04-27T10:42:37.549Z,14932.00
2019-04-27T10:43:37.641Z,14256.00
2019-04-27T10:44:37.511Z,13192.00
2019-04-27T10:45:37.985Z,10748.00
2019-04-27T10:46:37.492Z,11984.00
2019-04-27T10:47:37.499Z,13716.00
2019-04-27T10:48:37.484Z,11592.00
2019-04-27T10:49:37.477Z,11880.00
2019-04-27T10:50:37.525Z,10496.00
2019-04-27T10:51:37.435Z,9812.00
2019-04-27T10:52:37.456Z,9500.00
2019-04-27T10:53:38.927Z,10232.00
2019-04-27T10:54:38.521Z,8736.00
2019-04-27T10:55:37.387Z,8616.00
2019-04-27T10:56:38.462Z,9036.00
2019-04-27T10:57:37.379Z,10392.00
2019-04-27T10:58:37.474Z,9824.00
2019-04-27T10:59:37.360Z,9608.00
2019-04-27T11:00:37.411Z,11120.00
2019-04-27T11:01:37.321Z,12608.00
2019-04-27T11:02:37.383Z,12948.00
2019-04-27T11:03:37.313Z,12608.00
2019-04-27T11:04:37.384Z,12124.00
2019-04-27T11:05:37.273Z,11428.00
2019-04-27T11:06:37.314Z,10612.00
2019-04-27T11:07:37.286Z,9804.00
2019-04-27T11:08:37.258Z,9052.00
2019-04-27T11:09:37.236Z,9156.00
2019-04-27T11:10:37.287Z,8604.00
2019-04-27T11:11:37.219Z,8064.00
2019-04-27T11:12:37.271Z,7748.00
2019-04-27T11:13:38.306Z,7320.00
2019-04-27T11:14:37.260Z,7584.00
2019-04-27T11:15:37.286Z,6948.00
2019-04-27T11:16:39.240Z,6872.00
2019-04-27T11:17:37.303Z,7020.00
2019-04-27T11:18:37.232Z,7396.00
2019-04-27T11:19:39.154Z,7432.00
2019-04-27T11:20:37.114Z,8132.00
2019-04-27T11:21:38.166Z,9592.00
2019-04-27T11:22:37.113Z,11360.00
2019-04-27T11:23:37.175Z,11964.00
2019-04-27T11:24:37.135Z,13432.00
2019-04-27T11:25:37.065Z,15392.00
2019-04-27T11:26:37.076Z,16768.00
2019-04-27T11:27:37.047Z,18816.00
2019-04-27T11:28:39.057Z,21248.00
2019-04-27T11:29:37.018Z,24416.00
2019-04-27T11:30:37.059Z,25216.00
2019-04-27T11:31:37.003Z,23552.00
2019-04-27T11:32:37.036Z,19616.00
2019-04-27T11:33:36.970Z,15984.00
2019-04-27T11:34:38.141Z,13580.00
2019-04-27T11:35:36.953Z,11720.00
2019-04-27T11:36:36.962Z,10356.00
2019-04-27T11:37:37.378Z,9360.00
2019-04-27T11:38:46.529Z,10048.00
2019-04-27T11:39:36.894Z,9416.00
2019-04-27T11:40:38.341Z,8452.00
2019-04-27T11:41:36.885Z,9488.00
2019-04-27T11:42:36.906Z,9564.00
2019-04-27T11:43:36.846Z,8060.00
2019-04-27T11:44:36.907Z,7508.00
2019-04-27T11:45:36.937Z,7092.00
2019-04-27T11:46:36.828Z,7636.00
2019-04-27T11:47:36.913Z,7796.00
2019-04-27T11:48:36.819Z,7064.00
2019-04-27T11:49:36.840Z,6652.00
2019-04-27T11:50:36.770Z,6588.00
2019-04-27T11:51:36.775Z,6232.00
2019-04-27T11:52:36.731Z,6084.00
2019-04-27T11:53:36.862Z,6792.00
2019-04-27T11:54:36.722Z,9696.00
2019-04-27T11:55:36.753Z,11016.00
2019-04-27T11:56:36.835Z,10784.00
2019-04-27T11:57:37.693Z,9532.00
2019-04-27T11:58:36.815Z,9360.00
2019-04-27T11:59:36.656Z,8220.00
2019-04-27T12:00:36.696Z,7188.00
2019-04-27T12:01:36.649Z,6112.00
2019-04-27T12:02:36.637Z,5856.00
2019-04-27T12:03:38.698Z,5912.00
2019-04-27T12:04:36.609Z,6348.00
2019-04-27T12:05:37.659Z,6628.00
2019-04-27T12:06:36.600Z,6892.00
2019-04-27T12:07:36.591Z,7000.00
2019-04-27T12:08:36.681Z,5540.00
2019-04-27T12:09:36.552Z,5832.00
2019-04-27T12:10:36.586Z,9060.00
2019-04-27T12:11:36.532Z,11016.00
2019-04-27T12:12:36.525Z,9992.00
2019-04-27T12:13:36.524Z,8044.00
2019-04-27T12:14:37.574Z,7916.00
2019-04-27T12:15:36.485Z,7796.00
2019-04-27T12:16:36.585Z,8336.00
2019-04-27T12:17:36.477Z,10592.00